createdAt,value
2018-05-11T00:00:49.599Z,36.38
2018-05-11T00:01:52.132Z,37.58
2018-05-11T00:02:55.423Z,35.72
2018-05-11T00:03:57.959Z,37.80
2018-05-11T00:05:00.490Z,38.97
2018-05-11T00:06:02.993Z,37.90
2018-05-11T00:07:05.515Z,41.05
2018-05-11T00:08:08.034Z,36.65
2018-05-11T00:09:10.568Z,38.65
2018-05-11T00:10:13.093Z,39.13
2018-05-11T00:11:15.603Z,41.40
2018-05-11T00:12:18.122Z,39.85
2018-05-11T00:13:20.653Z,41.65
2018-05-11T00:14:23.181Z,41.03
2018-05-11T00:15:26.473Z,40.42
2018-05-11T00:16:29.746Z,40.70
2018-05-11T00:17:32.257Z,39.38
2018-05-11T00:18:34.808Z,42.70
2018-05-11T00:19:37.341Z,41.33
2018-05-11T00:20:39.839Z,40.17
2018-05-11T00:21:42.332Z,39.78
2018-05-11T00:22:44.837Z,40.25
2018-05-11T00:23:47.387Z,41.55
2018-05-11T00:24:49.905Z,39.60
2018-05-11T00:25:52.428Z,39.60
2018-05-11T00:26:54.936Z,40.50
2018-05-11T00:27:57.445Z,39.97
2018-05-11T00:29:00.733Z,39.92
2018-05-11T00:30:07.054Z,41.22
2018-05-11T00:31:09.586Z,40.88
2018-05-11T00:32:12.109Z,41.85
2018-05-11T00:33:15.396Z,40.67
2018-05-11T00:34:17.917Z,40.20
2018-05-11T00:35:20.660Z,42.25
2018-05-11T00:36:23.952Z,41.05
2018-05-11T00:37:27.236Z,41.33
2018-05-11T00:38:29.839Z,43.58
2018-05-11T00:39:32.391Z,41.80
2018-05-11T00:40:35.698Z,43.70
2018-05-11T00:41:38.234Z,46.42
2018-05-11T00:42:41.596Z,45.22
2018-05-11T00:43:44.122Z,48.10
2018-05-11T00:44:46.642Z,45.67
2018-05-11T00:45:49.171Z,43.55
2018-05-11T00:46:51.676Z,45.50
2018-05-11T00:47:54.167Z,46.13
2018-05-11T00:48:56.654Z,46.22
2018-05-11T00:49:59.922Z,47.03
2018-05-11T00:51:02.490Z,49.50
2018-05-11T00:52:05.722Z,46.53
2018-05-11T00:53:08.236Z,46.90
2018-05-11T00:54:10.760Z,48.75
2018-05-11T00:55:25.141Z,47.92
2018-05-11T00:56:27.633Z,47.35
2018-05-11T00:57:30.209Z,46.53
2018-05-11T00:58:32.832Z,46.65
2018-05-11T00:59:35.330Z,49.58
2018-05-11T01:00:37.837Z,49.55
2018-05-11T01:01:40.340Z,48.08
2018-05-11T01:02:42.825Z,46.40
2018-05-11T01:03:45.327Z,48.53
2018-05-11T01:04:47.826Z,46.63
2018-05-11T01:05:50.490Z,45.55
2018-05-11T01:06:52.994Z,46.00
2018-05-11T01:07:55.527Z,49.10
2018-05-11T01:08:58.053Z,49.10
2018-05-11T01:10:00.571Z,48.08
2018-05-11T01:11:03.079Z,46.80
2018-05-11T01:12:05.585Z,48.72
2018-05-11T01:13:08.112Z,48.97
2018-05-11T01:14:11.393Z,47.88
2018-05-11T01:15:14.688Z,46.85
2018-05-11T01:16:17.203Z,47.78
2018-05-11T01:17:19.741Z,45.45
2018-05-11T01:18:22.248Z,47.78
2018-05-11T01:19:24.741Z,47.13
2018-05-11T01:20:27.253Z,46.15
2018-05-11T01:21:29.758Z,46.47
2018-05-11T01:22:32.272Z,47.70
2018-05-11T01:23:35.549Z,48.20
2018-05-11T01:24:38.807Z,50.83
2018-05-11T01:25:41.310Z,49.28
2018-05-11T01:26:44.585Z,46.85
2018-05-11T01:27:47.082Z,47.03
2018-05-11T01:28:50.349Z,48.20
2018-05-11T01:29:53.627Z,48.35
2018-05-11T01:30:56.131Z,48.05
2018-05-11T01:31:58.623Z,49.95
2018-05-11T01:33:01.116Z,50.22
2018-05-11T01:34:03.632Z,49.80
2018-05-11T01:35:06.895Z,47.17
2018-05-11T01:36:09.403Z,50.20
2018-05-11T01:37:11.899Z,49.58
2018-05-11T01:38:14.394Z,49.08
2018-05-11T01:39:16.924Z,48.20
2018-05-11T01:40:19.493Z,49.83
2018-05-11T01:41:21.976Z,48.70
2018-05-11T01:42:24.478Z,49.22
2018-05-11T01:43:27.028Z,49.15
2018-05-11T01:44:29.541Z,48.35
2018-05-11T01:45:32.054Z,48.80
2018-05-11T01:46:34.585Z,47.90
2018-05-11T01:47:37.081Z,49.90
2018-05-11T01:48:39.571Z,47.03
2018-05-11T01:49:42.099Z,51.60
2018-05-11T01:50:45.370Z,50.35
2018-05-11T01:51:47.862Z,51.75
2018-05-11T01:52:51.174Z,49.45
2018-05-11T01:53:53.671Z,48.58
2018-05-11T01:54:56.212Z,51.70
2018-05-11T01:55:58.740Z,48.70
2018-05-11T01:57:01.234Z,48.17
2018-05-11T01:58:04.492Z,49.08
2018-05-11T01:59:06.980Z,52.50
2018-05-11T02:00:09.499Z,49.25
2018-05-11T02:01:12.009Z,51.78
2018-05-11T02:02:14.512Z,48.58
2018-05-11T02:03:17.773Z,48.08
2018-05-11T02:04:20.266Z,48.38
2018-05-11T02:05:23.553Z,49.60
2018-05-11T02:06:26.809Z,49.83
2018-05-11T02:07:29.312Z,52.67
2018-05-11T02:08:32.576Z,53.33
2018-05-11T02:09:35.831Z,48.17
2018-05-11T02:10:38.368Z,52.78
2018-05-11T02:11:46.853Z,50.97
2018-05-11T02:12:49.806Z,50.58
2018-05-11T02:13:52.314Z,51.37
2018-05-11T02:14:55.585Z,51.50
2018-05-11T02:15:58.105Z,54.17
2018-05-11T02:17:00.597Z,49.30
2018-05-11T02:18:03.091Z,52.00
2018-05-11T02:19:05.609Z,52.28
2018-05-11T02:20:08.109Z,50.92
2018-05-11T02:21:10.627Z,53.55
2018-05-11T02:22:13.888Z,52.38
2018-05-11T02:23:17.148Z,52.50
2018-05-11T02:24:19.651Z,54.22
2018-05-11T02:25:22.172Z,52.33
2018-05-11T02:26:24.671Z,51.72
2018-05-11T02:27:27.161Z,54.47
2018-05-11T02:28:29.669Z,54.20
2018-05-11T02:29:32.182Z,58.47
2018-05-11T02:30:34.714Z,56.58
2018-05-11T02:31:37.214Z,57.40
2018-05-11T02:32:39.710Z,57.28
2018-05-11T02:33:42.218Z,55.35
2018-05-11T02:34:44.717Z,58.60
2018-05-11T02:35:47.222Z,54.63
2018-05-11T02:36:49.739Z,57.03
2018-05-11T02:37:52.232Z,54.40
2018-05-11T02:38:54.734Z,55.70
2018-05-11T02:39:57.235Z,56.20
2018-05-11T02:41:00.481Z,57.25
2018-05-11T02:42:02.997Z,57.00
2018-05-11T02:43:05.485Z,56.20
2018-05-11T02:44:07.980Z,59.17
2018-05-11T02:45:10.618Z,54.53
2018-05-11T02:46:13.134Z,57.90
2018-05-11T02:47:15.652Z,55.25
2018-05-11T02:48:18.150Z,57.10
2018-05-11T02:49:20.653Z,51.22
2018-05-11T02:50:24.683Z,54.58
2018-05-11T02:51:27.945Z,52.62
2018-05-11T02:52:30.480Z,54.03
2018-05-11T02:53:32.967Z,56.55
2018-05-11T02:54:35.455Z,55.33
2018-05-11T02:55:37.952Z,55.92
2018-05-11T02:56:41.214Z,54.20
2018-05-11T02:57:43.712Z,55.50
2018-05-11T02:58:46.981Z,53.47
2018-05-11T02:59:49.477Z,55.45
2018-05-11T03:00:52.745Z,55.25
2018-05-11T03:01:56.013Z,53.87
2018-05-11T03:02:58.517Z,55.58
2018-05-11T03:04:01.777Z,53.50
2018-05-11T03:05:04.284Z,57.72
2018-05-11T03:06:06.774Z,55.22
2018-05-11T03:07:09.264Z,57.83
2018-05-11T03:08:11.917Z,59.30
2018-05-11T03:09:14.409Z,57.62
2018-05-11T03:10:17.097Z,58.42
2018-05-11T03:11:19.610Z,58.70
2018-05-11T03:12:22.869Z,56.55
2018-05-11T03:13:25.374Z,56.13
2018-05-11T03:14:27.915Z,56.60
2018-05-11T03:15:30.456Z,54.47
2018-05-11T03:16:32.971Z,52.88
2018-05-11T03:17:36.293Z,52.95
2018-05-11T03:18:39.734Z,55.55
2018-05-11T03:19:42.205Z,59.08
2018-05-11T03:20:44.763Z,56.22
2018-05-11T03:21:47.263Z,56.15
2018-05-11T03:22:50.514Z,56.78
2018-05-11T03:23:53.021Z,57.72
2018-05-11T03:24:56.273Z,58.83
2018-05-11T03:25:58.764Z,58.20
2018-05-11T03:27:01.267Z,56.10
2018-05-11T03:28:03.767Z,57.75
2018-05-11T03:29:06.280Z,57.28
2018-05-11T03:30:09.555Z,57.50
2018-05-11T03:31:12.077Z,56.40
2018-05-11T03:32:14.571Z,57.97
2018-05-11T03:33:17.077Z,58.10
2018-05-11T03:34:20.352Z,59.35
2018-05-11T03:35:22.846Z,60.40
2018-05-11T03:36:26.126Z,58.83
2018-05-11T03:37:29.408Z,61.10
2018-05-11T03:38:32.693Z,58.70
2018-05-11T03:39:35.302Z,58.90
2018-05-11T03:40:37.829Z,60.75
2018-05-11T03:41:40.318Z,58.85
2018-05-11T03:42:43.570Z,61.90
2018-05-11T03:43:46.078Z,60.92
2018-05-11T03:44:49.349Z,59.17
2018-05-11T03:45:51.855Z,61.80
2018-05-11T03:46:54.363Z,61.63
2018-05-11T03:47:56.856Z,60.45
2018-05-11T03:48:59.363Z,59.83
2018-05-11T03:50:02.673Z,61.78
2018-05-11T03:51:05.202Z,58.60
2018-05-11T03:52:07.725Z,60.97
2018-05-11T03:53:10.287Z,58.08
2018-05-11T03:54:12.789Z,56.58
2018-05-11T03:55:15.343Z,57.28
2018-05-11T03:56:17.837Z,60.05
2018-05-11T03:57:20.332Z,61.13
2018-05-11T03:58:23.612Z,58.70
2018-05-11T03:59:26.871Z,55.80
2018-05-11T04:00:29.400Z,61.05
2018-05-11T04:01:43.759Z,61.40
2018-05-11T04:02:58.245Z,59.10
2018-05-11T04:04:12.653Z,61.55
2018-05-11T04:05:27.994Z,59.50
2018-05-11T04:06:42.485Z,58.42
2018-05-11T04:07:56.821Z,60.97
2018-05-11T04:08:59.327Z,59.60
2018-05-11T04:10:01.817Z,66.00
2018-05-11T04:11:04.315Z,59.97
2018-05-11T04:12:07.615Z,60.80
2018-05-11T04:13:10.237Z,58.60
2018-05-11T04:14:13.430Z,57.50
2018-05-11T04:15:15.947Z,58.30
2018-05-11T04:16:18.445Z,58.25
2018-05-11T04:17:20.951Z,56.83
2018-05-11T04:18:23.444Z,56.28
2018-05-11T04:19:26.700Z,55.60
2018-05-11T04:20:29.202Z,53.33
2018-05-11T04:21:32.461Z,55.22
2018-05-11T04:22:34.976Z,52.53
2018-05-11T04:23:37.467Z,51.30
2018-05-11T04:24:40.016Z,52.03
2018-05-11T04:25:42.529Z,52.62
2018-05-11T04:26:45.078Z,50.97
2018-05-11T04:27:48.322Z,50.75
2018-05-11T04:28:51.601Z,47.55
2018-05-11T04:29:54.118Z,48.75
2018-05-11T04:30:56.896Z,49.17
2018-05-11T04:31:59.417Z,47.97
2018-05-11T04:33:03.706Z,48.17
2018-05-11T04:34:06.215Z,49.42
2018-05-11T04:35:09.477Z,47.30
2018-05-11T04:36:11.990Z,45.97
2018-05-11T04:37:14.539Z,44.90
2018-05-11T04:38:17.017Z,44.30
2018-05-11T04:39:19.521Z,43.15
2018-05-11T04:40:22.028Z,38.85
2018-05-11T04:41:24.540Z,43.83
2018-05-11T04:42:27.797Z,41.95
2018-05-11T04:43:30.295Z,42.22
2018-05-11T04:44:33.570Z,42.05
2018-05-11T04:45:36.870Z,42.10
2018-05-11T04:46:40.129Z,40.65
2018-05-11T04:47:44.258Z,39.08
2018-05-11T04:48:47.539Z,37.88
2018-05-11T04:49:50.041Z,37.97
2018-05-11T04:50:52.572Z,35.95
2018-05-11T04:51:55.062Z,35.42
2018-05-11T04:52:58.326Z,34.28
2018-05-11T04:54:00.811Z,31.52
2018-05-11T04:55:04.084Z,31.00
2018-05-11T04:56:07.443Z,33.40
2018-05-11T04:57:09.971Z,31.33
2018-05-11T04:58:13.250Z,30.37
2018-05-11T04:59:16.516Z,29.60
2018-05-11T05:00:19.039Z,29.23
2018-05-11T05:01:21.545Z,27.83
2018-05-11T05:02:24.049Z,26.85
2018-05-11T05:03:26.540Z,25.50
2018-05-11T05:04:29.052Z,24.33
2018-05-11T05:05:31.568Z,23.65
2018-05-11T05:06:34.818Z,22.40
2018-05-11T05:07:37.326Z,24.17
2018-05-11T05:08:40.597Z,22.10
2018-05-11T05:09:43.090Z,21.48
2018-05-11T05:10:45.643Z,20.30
2018-05-11T05:11:48.145Z,19.48
2018-05-11T05:12:50.662Z,18.90
2018-05-11T05:13:53.158Z,19.15
2018-05-11T05:14:56.438Z,18.05
2018-05-11T05:15:58.940Z,19.62
2018-05-11T05:17:01.485Z,18.33
2018-05-11T05:18:04.002Z,18.70
2018-05-11T05:19:06.526Z,18.52
2018-05-11T05:20:09.020Z,18.95
2018-05-11T05:21:11.539Z,19.75
2018-05-11T05:22:14.049Z,17.52
2018-05-11T05:23:16.606Z,20.25
2018-05-11T05:24:19.100Z,19.35
2018-05-11T05:25:22.372Z,18.50
2018-05-11T05:26:25.639Z,19.75
2018-05-11T05:27:28.159Z,18.73
2018-05-11T05:28:30.696Z,18.90
2018-05-11T05:29:33.466Z,18.87
2018-05-11T05:30:36.090Z,19.83
2018-05-11T05:31:38.585Z,17.92
2018-05-11T05:32:41.148Z,19.15
2018-05-11T05:33:43.662Z,18.60
2018-05-11T05:34:46.979Z,18.10
2018-05-11T05:35:49.511Z,17.52
2018-05-11T05:36:52.017Z,18.48
2018-05-11T05:37:54.528Z,18.48
2018-05-11T05:38:57.032Z,16.50
2018-05-11T05:40:00.301Z,19.00
2018-05-11T05:41:02.828Z,19.33
2018-05-11T05:42:05.325Z,19.30
2018-05-11T05:43:07.850Z,19.77
2018-05-11T05:44:11.131Z,19.50
2018-05-11T05:45:14.410Z,18.08
2018-05-11T05:46:17.694Z,19.83
2018-05-11T05:47:20.968Z,18.77
2018-05-11T05:48:23.470Z,19.65
2018-05-11T05:49:26.010Z,18.90
2018-05-11T05:50:28.500Z,19.25
2018-05-11T05:51:31.783Z,18.95
2018-05-11T05:52:35.048Z,20.37
2018-05-11T05:53:37.584Z,18.80
2018-05-11T05:54:40.095Z,19.40
2018-05-11T05:55:42.608Z,19.02
2018-05-11T05:56:45.138Z,21.40
2018-05-11T05:57:47.655Z,20.02
2018-05-11T05:58:50.151Z,20.85
2018-05-11T05:59:52.701Z,18.87
2018-05-11T06:00:55.933Z,20.15
2018-05-11T06:01:58.446Z,19.98
2018-05-11T06:03:00.948Z,19.33
2018-05-11T06:04:03.459Z,19.95
2018-05-11T06:05:06.750Z,20.08
2018-05-11T06:06:09.267Z,19.80
2018-05-11T06:07:11.923Z,19.80
2018-05-11T06:08:14.456Z,19.95
2018-05-11T06:09:16.932Z,19.62
2018-05-11T06:10:20.211Z,19.30
2018-05-11T06:11:22.712Z,20.85
2018-05-11T06:12:25.987Z,19.95
2018-05-11T06:13:29.264Z,20.67
2018-05-11T06:14:31.758Z,22.58
2018-05-11T06:15:34.288Z,20.75
2018-05-11T06:16:36.811Z,21.08
2018-05-11T06:17:39.331Z,20.83
2018-05-11T06:18:41.862Z,21.70
2018-05-11T06:19:44.379Z,20.05
2018-05-11T06:20:46.895Z,21.75
2018-05-11T06:21:49.409Z,21.35
2018-05-11T06:22:51.928Z,21.12
2018-05-11T06:23:54.441Z,21.90
2018-05-11T06:24:56.992Z,20.37
2018-05-11T06:26:00.225Z,21.17
2018-05-11T06:27:02.729Z,20.27
2018-05-11T06:28:05.278Z,19.42
2018-05-11T06:29:08.551Z,19.90
2018-05-11T06:30:11.080Z,20.00
2018-05-11T06:31:13.612Z,20.23
2018-05-11T06:32:16.936Z,21.20
2018-05-11T06:33:19.455Z,20.15
2018-05-11T06:34:21.971Z,20.92
2018-05-11T06:35:24.506Z,20.50
2018-05-11T06:36:27.772Z,21.80
2018-05-11T06:37:30.282Z,20.48
2018-05-11T06:38:33.560Z,19.17
2018-05-11T06:39:36.823Z,19.37
2018-05-11T06:40:39.396Z,20.55
2018-05-11T06:41:41.857Z,19.85
2018-05-11T06:42:44.382Z,18.55
2018-05-11T06:43:46.905Z,18.50
2018-05-11T06:44:49.414Z,18.58
2018-05-11T06:45:51.928Z,19.77
2018-05-11T06:46:54.435Z,20.15
2018-05-11T06:47:57.719Z,19.50
2018-05-11T06:49:00.991Z,19.95
2018-05-11T06:50:03.507Z,19.60
2018-05-11T06:51:05.997Z,19.33
2018-05-11T06:52:08.503Z,17.95
2018-05-11T06:53:11.813Z,18.70
2018-05-11T06:54:15.070Z,17.08
2018-05-11T06:55:17.690Z,18.77
2018-05-11T06:56:20.194Z,17.10
2018-05-11T06:57:22.699Z,18.20
2018-05-11T06:58:25.246Z,17.35
2018-05-11T06:59:27.769Z,17.12
2018-05-11T07:00:31.047Z,17.40
2018-05-11T07:01:34.319Z,17.67
2018-05-11T07:02:37.605Z,16.08
2018-05-11T07:03:40.147Z,16.92
2018-05-11T07:04:42.648Z,16.37
2018-05-11T07:05:45.179Z,17.58
2018-05-11T07:06:47.696Z,18.92
2018-05-11T07:07:50.285Z,18.15
2018-05-11T07:08:52.773Z,19.08
2018-05-11T07:09:55.301Z,17.80
2018-05-11T07:10:57.802Z,17.15
2018-05-11T07:12:01.068Z,17.52
2018-05-11T07:13:03.564Z,18.55
2018-05-11T07:14:06.110Z,17.62
2018-05-11T07:15:09.421Z,17.00
2018-05-11T07:16:12.079Z,17.52
2018-05-11T07:17:14.609Z,16.60
2018-05-11T07:18:17.124Z,18.90
2018-05-11T07:19:20.498Z,18.12
2018-05-11T07:20:23.006Z,18.48
2018-05-11T07:21:25.530Z,18.23
2018-05-11T07:22:28.045Z,18.87
2018-05-11T07:23:30.566Z,18.17
2018-05-11T07:24:33.086Z,17.35
2018-05-11T07:25:35.671Z,18.08
2018-05-11T07:26:38.134Z,17.45
2018-05-11T07:27:40.634Z,18.55
2018-05-11T07:28:43.135Z,18.77
2018-05-11T07:29:45.678Z,16.00
2018-05-11T07:30:48.186Z,17.87
2018-05-11T07:31:51.456Z,17.50
2018-05-11T07:32:53.968Z,16.67
2018-05-11T07:33:56.477Z,15.93
2018-05-11T07:34:59.099Z,15.70
2018-05-11T07:36:01.791Z,16.30
2018-05-11T07:37:04.357Z,13.75
2018-05-11T07:38:06.894Z,15.57
2018-05-11T07:39:10.200Z,14.68
2018-05-11T07:40:13.497Z,15.60
2018-05-11T07:41:16.012Z,14.85
2018-05-11T07:42:18.644Z,14.05
2018-05-11T07:43:21.328Z,14.70
2018-05-11T07:44:23.764Z,15.95
2018-05-11T07:45:27.065Z,14.75
2018-05-11T07:46:30.337Z,14.82
2018-05-11T07:47:32.865Z,15.35
2018-05-11T07:48:36.179Z,13.80
2018-05-11T07:49:38.804Z,14.73
2018-05-11T07:50:41.376Z,15.10
2018-05-11T07:51:43.878Z,14.82
2018-05-11T07:52:46.425Z,13.23
2018-05-11T07:53:48.964Z,13.32
2018-05-11T07:54:52.239Z,14.10
2018-05-11T07:55:54.759Z,13.88
2018-05-11T07:56:57.261Z,14.30
2018-05-11T07:57:59.790Z,14.40
2018-05-11T07:59:02.307Z,14.18
2018-05-11T08:00:04.851Z,15.50
2018-05-11T08:01:07.399Z,15.35
2018-05-11T08:02:09.916Z,15.65
2018-05-11T08:03:12.455Z,15.48
2018-05-11T08:04:14.956Z,14.55
2018-05-11T08:05:17.491Z,14.85
2018-05-11T08:06:20.055Z,15.68
2018-05-11T08:07:22.629Z,14.55
2018-05-11T08:08:25.122Z,14.70
2018-05-11T08:09:27.628Z,14.05
2018-05-11T08:10:30.144Z,14.75
2018-05-11T08:11:32.662Z,14.35
2018-05-11T08:12:35.194Z,13.75
2018-05-11T08:13:37.848Z,15.30
2018-05-11T08:14:40.369Z,14.90
2018-05-11T08:15:42.895Z,14.40
2018-05-11T08:16:45.470Z,14.10
2018-05-11T08:17:48.053Z,13.70
2018-05-11T08:18:50.574Z,14.05
2018-05-11T08:19:53.117Z,13.75
2018-05-11T08:20:55.668Z,14.10
2018-05-11T08:21:58.198Z,12.98
2018-05-11T08:23:01.483Z,12.77
2018-05-11T08:24:04.770Z,12.68
2018-05-11T08:25:08.080Z,13.62
2018-05-11T08:26:10.665Z,13.18
2018-05-11T08:27:13.306Z,12.45
2018-05-11T08:28:16.586Z,13.13
2018-05-11T08:29:19.090Z,13.30
2018-05-11T08:30:21.615Z,13.10
2018-05-11T08:31:24.114Z,12.37
2018-05-11T08:32:27.403Z,12.37
2018-05-11T08:33:30.691Z,12.90
2018-05-11T08:34:33.980Z,11.88
2018-05-11T08:35:37.267Z,11.07
2018-05-11T08:36:40.539Z,12.50
2018-05-11T08:37:43.073Z,11.60
2018-05-11T08:38:45.678Z,11.73
2018-05-11T08:39:48.194Z,10.80
2018-05-11T08:40:50.729Z,12.07
2018-05-11T08:41:54.026Z,12.30
2018-05-11T08:42:57.331Z,11.50
2018-05-11T08:43:59.836Z,11.33
2018-05-11T08:45:02.349Z,11.77
2018-05-11T08:46:05.615Z,11.90
2018-05-11T08:47:09.651Z,12.20
2018-05-11T08:48:12.959Z,13.00
2018-05-11T08:49:15.473Z,9.17
2018-05-11T08:50:18.004Z,10.77
2018-05-11T08:51:20.539Z,10.00
2018-05-11T08:52:23.032Z,11.70
2018-05-11T08:53:26.327Z,8.10
2018-05-11T08:54:28.909Z,10.23
2018-05-11T08:55:31.424Z,10.77
2018-05-11T08:56:33.931Z,12.40
2018-05-11T08:57:36.429Z,10.10
2018-05-11T08:58:38.947Z,13.00
2018-05-11T08:59:43.001Z,12.52
2018-05-11T09:00:45.540Z,11.70
2018-05-11T09:01:48.136Z,10.93
2018-05-11T09:02:50.648Z,10.00
2018-05-11T09:03:53.283Z,10.53
2018-05-11T09:04:55.822Z,11.87
2018-05-11T09:05:59.091Z,11.00
2018-05-11T09:07:01.646Z,12.10
2018-05-11T09:08:04.178Z,14.20
2018-05-11T09:09:06.678Z,11.20
2018-05-11T09:10:10.516Z,13.67
2018-05-11T09:11:13.069Z,7.90
2018-05-11T09:12:15.578Z,14.40
2018-05-11T09:13:18.879Z,14.57
2018-05-11T09:14:21.418Z,12.73
2018-05-11T09:15:23.922Z,14.57
2018-05-11T09:16:26.418Z,15.03
2018-05-11T09:17:28.914Z,13.07
2018-05-11T09:18:31.465Z,13.83
2018-05-11T09:19:34.008Z,11.07
2018-05-11T09:20:36.580Z,14.30
2018-05-11T09:21:39.112Z,14.77
2018-05-11T09:22:42.388Z,12.93
2018-05-11T09:23:44.891Z,13.00
2018-05-11T09:24:48.181Z,10.77
2018-05-11T09:25:51.502Z,12.57
2018-05-11T09:26:54.016Z,11.70
2018-05-11T09:27:56.531Z,14.50
2018-05-11T09:28:59.054Z,12.40
2018-05-11T09:30:01.549Z,13.20
2018-05-11T09:31:04.861Z,13.40
2018-05-11T09:32:07.390Z,13.20
2018-05-11T09:33:09.895Z,11.63
2018-05-11T09:34:12.471Z,14.23
2018-05-11T09:35:15.364Z,13.13
2018-05-11T09:36:17.896Z,13.90
2018-05-11T09:37:20.411Z,11.90
2018-05-11T09:38:22.928Z,13.57
2018-05-11T09:39:25.463Z,11.40
2018-05-11T09:40:27.971Z,10.53
2018-05-11T09:41:30.521Z,12.83
2018-05-11T09:42:33.047Z,10.67
2018-05-11T09:43:35.561Z,10.90
2018-05-11T09:44:38.070Z,9.53
2018-05-11T09:45:41.374Z,9.07
2018-05-11T09:46:43.943Z,8.87
2018-05-11T09:47:46.475Z,8.90
2018-05-11T09:48:49.086Z,9.60
2018-05-11T09:49:51.595Z,10.00
2018-05-11T09:50:54.122Z,11.20
2018-05-11T09:51:56.683Z,11.30
2018-05-11T09:52:59.952Z,11.20
2018-05-11T09:54:02.438Z,12.13
2018-05-11T09:55:05.743Z,11.47
2018-05-11T09:56:08.252Z,12.40
2018-05-11T09:57:10.805Z,12.40
2018-05-11T09:58:13.342Z,11.30
2018-05-11T09:59:16.622Z,8.90
2018-05-11T10:00:25.889Z,9.83
2018-05-11T10:01:28.402Z,9.77
2018-05-11T10:02:30.923Z,9.47
2018-05-11T10:03:33.496Z,9.97
2018-05-11T10:04:36.013Z,10.90
2018-05-11T10:05:39.286Z,9.60
2018-05-11T10:06:41.796Z,10.53
2018-05-11T10:07:45.203Z,10.67
2018-05-11T10:08:47.668Z,9.97
2018-05-11T10:09:50.954Z,10.17
2018-05-11T10:10:54.242Z,10.73
2018-05-11T10:11:57.529Z,9.77
2018-05-11T10:13:00.848Z,10.60
2018-05-11T10:14:03.399Z,10.40
2018-05-11T10:15:05.930Z,10.13
2018-05-11T10:16:08.472Z,10.03
2018-05-11T10:17:11.041Z,12.50
2018-05-11T10:18:13.601Z,11.53
2018-05-11T10:19:16.120Z,10.80
2018-05-11T10:20:18.641Z,11.53
2018-05-11T10:21:21.168Z,11.50
2018-05-11T10:22:23.703Z,11.20
2018-05-11T10:23:26.219Z,11.70
2018-05-11T10:24:29.474Z,9.10
2018-05-11T10:25:31.988Z,11.20
2018-05-11T10:26:34.501Z,11.40
2018-05-11T10:27:37.006Z,11.10
2018-05-11T10:28:39.542Z,9.37
2018-05-11T10:29:42.084Z,11.60
2018-05-11T10:30:44.592Z,10.67
2018-05-11T10:31:47.394Z,9.03
2018-05-11T10:32:49.927Z,9.60
2018-05-11T10:33:52.471Z,9.95
2018-05-11T10:34:55.024Z,10.00
2018-05-11T10:35:58.304Z,10.13
2018-05-11T10:37:01.606Z,10.18
2018-05-11T10:38:04.129Z,10.40
2018-05-11T10:39:06.645Z,10.50
2018-05-11T10:40:09.184Z,10.77
2018-05-11T10:41:13.184Z,9.32
2018-05-11T10:42:15.684Z,10.30
2018-05-11T10:43:18.203Z,9.60
2018-05-11T10:44:20.703Z,8.98
2018-05-11T10:45:23.275Z,10.20
2018-05-11T10:46:25.780Z,9.70
2018-05-11T10:47:29.059Z,9.27
2018-05-11T10:48:32.377Z,10.15
2018-05-11T10:49:34.868Z,9.60
2018-05-11T10:50:37.387Z,9.82
2018-05-11T10:51:40.647Z,10.65
2018-05-11T10:52:43.136Z,9.40
2018-05-11T10:53:46.434Z,10.35
2018-05-11T10:54:49.734Z,9.55
2018-05-11T10:55:53.011Z,9.68
2018-05-11T10:56:56.334Z,9.20
2018-05-11T10:57:58.973Z,9.15
2018-05-11T10:59:02.256Z,9.55
2018-05-11T11:00:04.804Z,9.90
2018-05-11T11:01:07.325Z,9.93
2018-05-11T11:02:09.887Z,9.40
2018-05-11T11:03:13.168Z,9.55
2018-05-11T11:04:16.445Z,10.05
2018-05-11T11:05:19.796Z,11.50
2018-05-11T11:06:22.294Z,10.48
2018-05-11T11:07:24.799Z,10.48
2018-05-11T11:08:27.302Z,10.65
2018-05-11T11:09:29.811Z,11.60
2018-05-11T11:10:32.349Z,10.43
2018-05-11T11:11:34.902Z,10.90
2018-05-11T11:12:37.450Z,10.57
2018-05-11T11:13:40.040Z,11.05
2018-05-11T11:14:42.560Z,10.02
2018-05-11T11:15:45.094Z,10.30
2018-05-11T11:16:47.691Z,11.40
2018-05-11T11:17:50.220Z,10.50
2018-05-11T11:18:52.727Z,10.25
2018-05-11T11:19:55.239Z,10.50
2018-05-11T11:20:57.785Z,10.60
2018-05-11T11:22:00.326Z,11.60
2018-05-11T11:23:02.833Z,11.12
2018-05-11T11:24:05.334Z,9.98
2018-05-11T11:25:07.838Z,10.80
2018-05-11T11:26:10.371Z,9.75
2018-05-11T11:27:12.876Z,11.55
2018-05-11T11:28:15.413Z,12.10
2018-05-11T11:29:18.030Z,11.93
2018-05-11T11:30:21.262Z,10.68
2018-05-11T11:31:24.577Z,10.02
2018-05-11T11:32:27.069Z,11.00
2018-05-11T11:33:29.575Z,11.07
2018-05-11T11:34:32.121Z,10.63
2018-05-11T11:35:34.629Z,10.95
2018-05-11T11:36:37.906Z,10.63
2018-05-11T11:37:40.421Z,10.68
2018-05-11T11:38:42.950Z,11.25
2018-05-11T11:39:45.477Z,11.00
2018-05-11T11:40:48.047Z,10.52
2018-05-11T11:41:50.610Z,12.10
2018-05-11T11:42:53.137Z,12.32
2018-05-11T11:43:55.661Z,11.10
2018-05-11T11:44:58.209Z,12.02
2018-05-11T11:46:00.772Z,11.35
2018-05-11T11:47:04.082Z,11.40
2018-05-11T11:48:06.612Z,11.90
2018-05-11T11:49:09.926Z,12.93
2018-05-11T11:50:12.453Z,11.85
2018-05-11T11:51:15.018Z,11.68
2018-05-11T11:52:17.518Z,11.98
2018-05-11T11:53:20.806Z,12.85
2018-05-11T11:54:24.071Z,13.20
2018-05-11T11:55:27.365Z,11.57
2018-05-11T11:56:31.512Z,12.63
2018-05-11T11:57:33.952Z,13.62
2018-05-11T11:58:36.494Z,12.10
2018-05-11T11:59:39.003Z,11.63
2018-05-11T12:00:42.282Z,11.00
2018-05-11T12:01:45.638Z,11.50
2018-05-11T12:02:48.170Z,12.77
2018-05-11T12:03:50.690Z,10.55
2018-05-11T12:04:53.194Z,13.20
2018-05-11T12:05:56.478Z,12.82
2018-05-11T12:06:59.738Z,11.65
2018-05-11T12:08:02.269Z,10.15
2018-05-11T12:09:04.802Z,10.90
2018-05-11T12:10:07.323Z,11.40
2018-05-11T12:11:09.877Z,11.35
2018-05-11T12:12:12.402Z,11.48
2018-05-11T12:13:15.931Z,12.40
2018-05-11T12:14:19.247Z,13.18
2018-05-11T12:15:21.775Z,13.05
2018-05-11T12:16:25.045Z,13.27
2018-05-11T12:17:28.613Z,13.48
2018-05-11T12:18:35.446Z,13.35
2018-05-11T12:19:50.182Z,14.25
2018-05-11T12:20:54.655Z,14.43
2018-05-11T12:21:57.769Z,13.25
2018-05-11T12:23:04.636Z,12.90
2018-05-11T12:24:08.794Z,15.18
2018-05-11T12:25:14.797Z,13.35
2018-05-11T12:26:17.548Z,13.20
2018-05-11T12:27:20.102Z,13.35
2018-05-11T12:28:24.291Z,13.45
2018-05-11T12:29:27.606Z,13.18
2018-05-11T12:30:30.122Z,14.13
2018-05-11T12:31:33.409Z,14.30
2018-05-11T12:32:36.799Z,15.95
2018-05-11T12:33:39.329Z,15.70
2018-05-11T12:34:41.884Z,15.20
2018-05-11T12:35:44.416Z,14.80
2018-05-11T12:36:46.926Z,14.80
2018-05-11T12:37:49.446Z,14.07
2018-05-11T12:38:51.950Z,15.20
2018-05-11T12:39:55.233Z,14.52
2018-05-11T12:40:58.573Z,14.50
2018-05-11T12:42:01.060Z,14.60
2018-05-11T12:43:03.600Z,12.77
2018-05-11T12:44:06.162Z,15.25
2018-05-11T12:45:10.407Z,13.65
2018-05-11T12:46:12.947Z,14.73
2018-05-11T12:47:16.267Z,13.82
2018-05-11T12:48:18.775Z,13.73
2018-05-11T12:49:22.055Z,14.85
2018-05-11T12:50:24.582Z,13.50
2018-05-11T12:51:27.084Z,14.45
2018-05-11T12:52:29.609Z,12.65
2018-05-11T12:53:32.153Z,14.70
2018-05-11T12:54:35.452Z,14.02
2018-05-11T12:55:37.978Z,12.32
2018-05-11T12:56:40.511Z,12.25
2018-05-11T12:57:43.028Z,12.32
2018-05-11T12:58:45.548Z,12.82
2018-05-11T12:59:48.098Z,13.13
2018-05-11T13:00:51.409Z,14.05
2018-05-11T13:01:53.977Z,12.60
2018-05-11T13:02:56.530Z,11.80
2018-05-11T13:03:59.817Z,12.95
2018-05-11T13:05:03.100Z,14.63
2018-05-11T13:06:06.402Z,14.20
2018-05-11T13:07:09.726Z,13.57
2018-05-11T13:08:12.289Z,13.70
2018-05-11T13:09:14.950Z,14.10
2018-05-11T13:10:17.528Z,15.13
2018-05-11T13:11:20.100Z,12.55
2018-05-11T13:12:22.617Z,12.50
2018-05-11T13:13:25.145Z,12.23
2018-05-11T13:14:27.645Z,12.70
2018-05-11T13:15:30.219Z,12.45
2018-05-11T13:16:32.759Z,11.90
2018-05-11T13:17:35.273Z,12.60
2018-05-11T13:18:37.766Z,12.27
2018-05-11T13:19:41.177Z,13.40
2018-05-11T13:20:43.777Z,12.50
2018-05-11T13:21:47.010Z,12.90
2018-05-11T13:22:49.569Z,12.60
2018-05-11T13:23:52.078Z,11.02
2018-05-11T13:24:54.593Z,12.05
2018-05-11T13:25:57.107Z,10.38
2018-05-11T13:27:00.427Z,9.93
2018-05-11T13:28:02.943Z,10.80
2018-05-11T13:29:05.457Z,10.10
2018-05-11T13:30:07.974Z,12.80
2018-05-11T13:31:10.495Z,10.27
2018-05-11T13:32:13.048Z,11.18